sensor_id;sensor_type;location;lat;lon;timestamp;temperature;humidity
7502;DHT22;3792;47.740;7.606;2024-01-25T00:02:04;10.00;99.90
7502;DHT22;3792;47.740;7.606;2024-01-25T00:04:32;10.00;99.90
7502;DHT22;3792;47.740;7.606;2024-01-25T00:06:59;10.00;99.90
7502;DHT22;3792;47.740;7.606;2024-01-25T00:09:28;10.00;99.90
7502;DHT22;3792;47.740;7.606;2024-01-25T00:11:57;10.00;99.90
7502;DHT22;3792;47.740;7.606;2024-01-25T00:14:24;10.00;99.90
7502;DHT22;3792;47.740;7.606;2024-01-25T00:16:51;9.90;99.90
7502;DHT22;3792;47.740;7.606;2024-01-25T00:19:19;9.90;99.90
7502;DHT22;3792;47.740;7.606;2024-01-25T00:21:48;9.80;99.90
7502;DHT22;3792;47.740;7.606;2024-01-25T00:24:15;9.90;99.90
7502;DHT22;3792;47.740;7.606;2024-01-25T00:26:42;9.90;99.90
7502;DHT22;3792;47.740;7.606;2024-01-25T00:29:09;9.90;99.90
7502;DHT22;3792;47.740;7.606;2024-01-25T00:31:36;9.90;99.90
7502;DHT22;3792;47.740;7.606;2024-01-25T00:34:04;9.90;99.90
7502;DHT22;3792;47.740;7.606;2024-01-25T00:36:31;9.90;99.90
7502;DHT22;3792;47.740;7.606;2024-01-25T00:39:00;10.00;99.90
7502;DHT22;3792;47.740;7.606;2024-01-25T00:41:30;9.90;99.90
7502;DHT22;3792;47.740;7.606;2024-01-25T00:43:59;10.00;99.90
7502;DHT22;3792;47.740;7.606;2024-01-25T00:46:29;10.00;99.90
7502;DHT22;3792;47.740;7.606;2024-01-25T00:48:57;10.00;99.90
7502;DHT22;3792;47.740;7.606;2024-01-25T00:51:24;10.00;99.90
7502;DHT22;3792;47.740;7.606;2024-01-25T00:53:51;10.00;99.90
7502;DHT22;3792;47.740;7.606;2024-01-25T00:56:20;10.00;99.90
7502;DHT22;3792;47.740;7.606;2024-01-25T00:58:48;10.00;99.90
7502;DHT22;3792;47.740;7.606;2024-01-25T01:01:15;9.90;99.90
7502;DHT22;3792;47.740;7.606;2024-01-25T01:03:48;9.90;99.90
7502;DHT22;3792;47.740;7.606;2024-01-25T01:06:21;9.90;99.90
7502;DHT22;3792;47.740;7.606;2024-01-25T01:08:49;9.90;99.90
7502;DHT22;3792;47.740;7.606;2024-01-25T01:11:16;9.90;99.90
7502;DHT22;3792;47.740;7.606;2024-01-25T01:13:44;9.90;99.90
7502;DHT22;3792;47.740;7.606;2024-01-25T01:16:11;9.90;99.90
7502;DHT22;3792;47.740;7.606;2024-01-25T01:18:39;9.90;99.90
7502;DHT22;3792;47.740;7.606;2024-01-25T01:21:06;9.90;99.90
7502;DHT22;3792;47.740;7.606;2024-01-25T01:23:33;9.90;99.90
7502;DHT22;3792;47.740;7.606;2024-01-25T01:26:00;9.90;99.90
7502;DHT22;3792;47.740;7.606;2024-01-25T01:28:31;9.90;99.90
7502;DHT22;3792;47.740;7.606;2024-01-25T01:30:59;9.90;99.90
7502;DHT22;3792;47.740;7.606;2024-01-25T01:33:28;9.90;99.90
7502;DHT22;3792;47.740;7.606;2024-01-25T01:35:55;9.90;99.90
7502;DHT22;3792;47.740;7.606;2024-01-25T01:38:22;9.90;99.90
7502;DHT22;3792;47.740;7.606;2024-01-25T01:40:49;10.00;99.90
7502;DHT22;3792;47.740;7.606;2024-01-25T01:43:20;10.00;99.90
7502;DHT22;3792;47.740;7.606;2024-01-25T01:45:49;9.90;99.90
7502;DHT22;3792;47.740;7.606;2024-01-25T01:48:17;9.90;99.90
7502;DHT22;3792;47.740;7.606;2024-01-25T01:50:45;9.90;99.90
7502;DHT22;3792;47.740;7.606;2024-01-25T01:53:13;9.90;99.90
7502;DHT22;3792;47.740;7.606;2024-01-25T01:55:41;9.90;99.90
7502;DHT22;3792;47.740;7.606;2024-01-25T01:58:09;9.80;99.90
7502;DHT22;3792;47.740;7.606;2024-01-25T02:00:37;9.80;99.90
7502;DHT22;3792;47.740;7.606;2024-01-25T02:03:06;9.90;99.90
7502;DHT22;3792;47.740;7.606;2024-01-25T02:05:35;9.90;99.90
7502;DHT22;3792;47.740;7.606;2024-01-25T02:08:05;9.90;99.90
7502;DHT22;3792;47.740;7.606;2024-01-25T02:10:32;9.90;99.90
7502;DHT22;3792;47.740;7.606;2024-01-25T02:13:01;9.90;99.90
7502;DHT22;3792;47.740;7.606;2024-01-25T02:15:28;9.90;99.90
7502;DHT22;3792;47.740;7.606;2024-01-25T02:17:57;9.90;99.90
7502;DHT22;3792;47.740;7.606;2024-01-25T02:20:25;9.90;99.90
7502;DHT22;3792;47.740;7.606;2024-01-25T02:22:53;9.90;99.90
7502;DHT22;3792;47.740;7.606;2024-01-25T02:25:20;9.90;99.90
7502;DHT22;3792;47.740;7.606;2024-01-25T02:27:47;9.90;99.90
7502;DHT22;3792;47.740;7.606;2024-01-25T02:30:18;9.90;99.90
7502;DHT22;3792;47.740;7.606;2024-01-25T02:32:45;9.80;99.90
7502;DHT22;3792;47.740;7.606;2024-01-25T02:35:12;9.80;99.90
7502;DHT22;3792;47.740;7.606;2024-01-25T02:37:41;9.90;99.90
7502;DHT22;3792;47.740;7.606;2024-01-25T02:40:10;9.90;99.90
7502;DHT22;3792;47.740;7.606;2024-01-25T02:42:37;10.00;99.90
7502;DHT22;3792;47.740;7.606;2024-01-25T02:45:07;10.00;99.90
7502;DHT22;3792;47.740;7.606;2024-01-25T02:47:34;9.90;99.90
7502;DHT22;3792;47.740;7.606;2024-01-25T02:50:01;9.90;99.90
7502;DHT22;3792;47.740;7.606;2024-01-25T02:52:28;9.90;99.90
7502;DHT22;3792;47.740;7.606;2024-01-25T02:54:55;9.90;99.90
7502;DHT22;3792;47.740;7.606;2024-01-25T02:57:26;9.90;99.90
7502;DHT22;3792;47.740;7.606;2024-01-25T02:59:54;9.90;99.90
7502;DHT22;3792;47.740;7.606;2024-01-25T03:02:21;9.90;99.90
7502;DHT22;3792;47.740;7.606;2024-01-25T03:04:48;9.80;99.90
7502;DHT22;3792;47.740;7.606;2024-01-25T03:07:15;9.90;99.90
7502;DHT22;3792;47.740;7.606;2024-01-25T03:09:45;9.90;99.90
7502;DHT22;3792;47.740;7.606;2024-01-25T03:12:15;9.90;99.90
7502;DHT22;3792;47.740;7.606;2024-01-25T03:14:43;9.90;99.90
7502;DHT22;3792;47.740;7.606;2024-01-25T03:17:12;9.90;99.90
7502;DHT22;3792;47.740;7.606;2024-01-25T03:19:42;9.90;99.90
7502;DHT22;3792;47.740;7.606;2024-01-25T03:22:09;9.90;99.90
7502;DHT22;3792;47.740;7.606;2024-01-25T03:24:37;9.90;99.90
7502;DHT22;3792;47.740;7.606;2024-01-25T03:27:05;9.80;99.90
7502;DHT22;3792;47.740;7.606;2024-01-25T03:29:40;9.80;99.90
7502;DHT22;3792;47.740;7.606;2024-01-25T03:32:08;9.80;99.90
7502;DHT22;3792;47.740;7.606;2024-01-25T03:34:37;9.90;99.90
7502;DHT22;3792;47.740;7.606;2024-01-25T03:37:04;9.90;99.90
7502;DHT22;3792;47.740;7.606;2024-01-25T03:39:31;9.80;99.90
7502;DHT22;3792;47.740;7.606;2024-01-25T03:41:59;9.90;99.90
7502;DHT22;3792;47.740;7.606;2024-01-25T03:44:27;9.90;99.90
7502;DHT22;3792;47.740;7.606;2024-01-25T03:46:54;9.80;99.90
7502;DHT22;3792;47.740;7.606;2024-01-25T03:49:23;9.90;99.90
7502;DHT22;3792;47.740;7.606;2024-01-25T03:51:50;9.90;99.90
7502;DHT22;3792;47.740;7.606;2024-01-25T03:54:18;9.80;99.90
7502;DHT22;3792;47.740;7.606;2024-01-25T03:56:45;9.90;99.90
7502;DHT22;3792;47.740;7.606;2024-01-25T03:59:12;9.90;99.90
7502;DHT22;3792;47.740;7.606;2024-01-25T04:01:46;9.90;99.90
7502;DHT22;3792;47.740;7.606;2024-01-25T04:04:17;9.90;99.90
7502;DHT22;3792;47.740;7.606;2024-01-25T04:06:45;10.00;99.90
7502;DHT22;3792;47.740;7.606;2024-01-25T04:09:14;10.00;99.90
7502;DHT22;3792;47.740;7.606;2024-01-25T04:11:42;10.00;99.90
7502;DHT22;3792;47.740;7.606;2024-01-25T04:14:09;10.00;99.90
7502;DHT22;3792;47.740;7.606;2024-01-25T04:16:37;10.00;99.90
7502;DHT22;3792;47.740;7.606;2024-01-25T04:19:08;10.00;99.90
7502;DHT22;3792;47.740;7.606;2024-01-25T04:21:37;10.00;99.90
7502;DHT22;3792;47.740;7.606;2024-01-25T04:24:08;10.10;99.90
7502;DHT22;3792;47.740;7.606;2024-01-25T04:26:35;10.00;99.90
7502;DHT22;3792;47.740;7.606;2024-01-25T04:29:02;10.00;99.90
7502;DHT22;3792;47.740;7.606;2024-01-25T04:31:29;10.00;99.90
7502;DHT22;3792;47.740;7.606;2024-01-25T04:33:56;10.00;99.90
7502;DHT22;3792;47.740;7.606;2024-01-25T04:36:28;9.90;99.90
7502;DHT22;3792;47.740;7.606;2024-01-25T04:38:55;10.00;99.90
7502;DHT22;3792;47.740;7.606;2024-01-25T04:41:23;10.00;99.90
7502;DHT22;3792;47.740;7.606;2024-01-25T04:43:50;10.10;99.90
7502;DHT22;3792;47.740;7.606;2024-01-25T04:46:17;10.10;99.90
7502;DHT22;3792;47.740;7.606;2024-01-25T04:48:44;10.10;99.90
7502;DHT22;3792;47.740;7.606;2024-01-25T04:51:15;10.10;99.90
7502;DHT22;3792;47.740;7.606;2024-01-25T04:53:42;10.10;99.90
7502;DHT22;3792;47.740;7.606;2024-01-25T04:56:10;10.10;99.90
7502;DHT22;3792;47.740;7.606;2024-01-25T04:58:38;10.10;99.90
7502;DHT22;3792;47.740;7.606;2024-01-25T05:01:07;10.00;99.90
7502;DHT22;3792;47.740;7.606;2024-01-25T05:03:34;10.00;99.90
7502;DHT22;3792;47.740;7.606;2024-01-25T05:06:01;9.90;99.90
7502;DHT22;3792;47.740;7.606;2024-01-25T05:08:28;9.90;99.90
7502;DHT22;3792;47.740;7.606;2024-01-25T05:10:55;10.00;99.90
7502;DHT22;3792;47.740;7.606;2024-01-25T05:13:22;9.90;99.90
7502;DHT22;3792;47.740;7.606;2024-01-25T05:15:51;9.90;99.90
7502;DHT22;3792;47.740;7.606;2024-01-25T05:18:18;9.90;99.90
7502;DHT22;3792;47.740;7.606;2024-01-25T05:20:45;9.90;99.90
7502;DHT22;3792;47.740;7.606;2024-01-25T05:23:12;10.00;99.90
7502;DHT22;3792;47.740;7.606;2024-01-25T05:25:39;10.00;99.90
7502;DHT22;3792;47.740;7.606;2024-01-25T05:28:06;10.00;99.90
7502;DHT22;3792;47.740;7.606;2024-01-25T05:30:34;10.00;99.90
7502;DHT22;3792;47.740;7.606;2024-01-25T05:33:02;10.00;99.90
7502;DHT22;3792;47.740;7.606;2024-01-25T05:35:31;10.00;99.90
7502;DHT22;3792;47.740;7.606;2024-01-25T05:38:00;10.00;99.90
7502;DHT22;3792;47.740;7.606;2024-01-25T05:40:27;10.00;99.90
7502;DHT22;3792;47.740;7.606;2024-01-25T05:42:54;10.00;99.90
7502;DHT22;3792;47.740;7.606;2024-01-25T05:45:21;10.00;99.90
7502;DHT22;3792;47.740;7.606;2024-01-25T05:47:49;10.00;99.90
7502;DHT22;3792;47.740;7.606;2024-01-25T05:50:18;10.00;99.90
7502;DHT22;3792;47.740;7.606;2024-01-25T05:52:45;9.90;99.90
7502;DHT22;3792;47.740;7.606;2024-01-25T05:55:12;10.00;99.90
7502;DHT22;3792;47.740;7.606;2024-01-25T05:57:42;10.00;99.90
7502;DHT22;3792;47.740;7.606;2024-01-25T06:00:11;10.00;99.90
7502;DHT22;3792;47.740;7.606;2024-01-25T06:02:40;10.00;99.90
7502;DHT22;3792;47.740;7.606;2024-01-25T06:05:09;10.10;99.90
7502;DHT22;3792;47.740;7.606;2024-01-25T06:07:38;10.10;99.90
7502;DHT22;3792;47.740;7.606;2024-01-25T06:10:08;10.00;99.90
7502;DHT22;3792;47.740;7.606;2024-01-25T06:12:35;10.10;99.90
7502;DHT22;3792;47.740;7.606;2024-01-25T06:15:02;10.10;99.90
7502;DHT22;3792;47.740;7.606;2024-01-25T06:17:31;10.10;99.90
7502;DHT22;3792;47.740;7.606;2024-01-25T06:19:58;10.10;99.90
7502;DHT22;3792;47.740;7.606;2024-01-25T06:22:25;10.10;99.90
7502;DHT22;3792;47.740;7.606;2024-01-25T06:24:54;10.30;99.90
7502;DHT22;3792;47.740;7.606;2024-01-25T06:27:24;10.50;99.90
7502;DHT22;3792;47.740;7.606;2024-01-25T06:29:51;10.60;99.90
7502;DHT22;3792;47.740;7.606;2024-01-25T06:32:20;10.60;99.90
7502;DHT22;3792;47.740;7.606;2024-01-25T06:34:48;10.60;99.90
7502;DHT22;3792;47.740;7.606;2024-01-25T06:37:18;10.50;99.90
7502;DHT22;3792;47.740;7.606;2024-01-25T06:39:45;10.50;99.90
7502;DHT22;3792;47.740;7.606;2024-01-25T06:42:14;10.40;99.90
7502;DHT22;3792;47.740;7.606;2024-01-25T06:44:41;10.40;99.90
7502;DHT22;3792;47.740;7.606;2024-01-25T06:47:10;10.30;99.90
7502;DHT22;3792;47.740;7.606;2024-01-25T06:49:46;10.40;99.90
7502;DHT22;3792;47.740;7.606;2024-01-25T06:52:22;10.30;99.90
7502;DHT22;3792;47.740;7.606;2024-01-25T06:54:49;10.30;99.90
7502;DHT22;3792;47.740;7.606;2024-01-25T06:57:17;10.30;99.90
7502;DHT22;3792;47.740;7.606;2024-01-25T06:59:43;10.20;99.90
7502;DHT22;3792;47.740;7.606;2024-01-25T07:02:10;10.20;99.90
7502;DHT22;3792;47.740;7.606;2024-01-25T07:04:37;10.20;99.90
7502;DHT22;3792;47.740;7.606;2024-01-25T07:07:06;10.20;99.90
7502;DHT22;3792;47.740;7.606;2024-01-25T07:09:33;10.10;99.90
7502;DHT22;3792;47.740;7.606;2024-01-25T07:12:00;10.10;99.90
7502;DHT22;3792;47.740;7.606;2024-01-25T07:14:30;10.10;99.90
7502;DHT22;3792;47.740;7.606;2024-01-25T07:16:57;10.10;99.90
7502;DHT22;3792;47.740;7.606;2024-01-25T07:19:24;10.10;99.90
7502;DHT22;3792;47.740;7.606;2024-01-25T07:21:51;10.10;99.90
7502;DHT22;3792;47.740;7.606;2024-01-25T07:24:18;10.10;99.90
7502;DHT22;3792;47.740;7.606;2024-01-25T07:26:45;10.00;99.90
7502;DHT22;3792;47.740;7.606;2024-01-25T07:29:15;10.00;99.90
7502;DHT22;3792;47.740;7.606;2024-01-25T07:31:43;10.00;99.90
7502;DHT22;3792;47.740;7.606;2024-01-25T07:34:13;10.00;99.90
7502;DHT22;3792;47.740;7.606;2024-01-25T07:36:40;10.00;99.90
7502;DHT22;3792;47.740;7.606;2024-01-25T07:39:08;10.00;99.90
7502;DHT22;3792;47.740;7.606;2024-01-25T07:41:37;10.10;99.90
7502;DHT22;3792;47.740;7.606;2024-01-25T07:44:04;10.10;99.90
7502;DHT22;3792;47.740;7.606;2024-01-25T07:46:33;10.10;99.90
7502;DHT22;3792;47.740;7.606;2024-01-25T07:49:02;10.00;99.90
7502;DHT22;3792;47.740;7.606;2024-01-25T07:51:29;10.00;99.90
7502;DHT22;3792;47.740;7.606;2024-01-25T07:53:56;10.10;99.90
7502;DHT22;3792;47.740;7.606;2024-01-25T07:56:23;10.00;99.90
7502;DHT22;3792;47.740;7.606;2024-01-25T07:58:51;10.00;99.90
7502;DHT22;3792;47.740;7.606;2024-01-25T08:01:21;9.90;99.90
7502;DHT22;3792;47.740;7.606;2024-01-25T08:03:48;9.90;99.90
7502;DHT22;3792;47.740;7.606;2024-01-25T08:06:17;9.90;99.90
7502;DHT22;3792;47.740;7.606;2024-01-25T08:08:44;10.00;99.90
7502;DHT22;3792;47.740;7.606;2024-01-25T08:11:11;10.00;99.90
7502;DHT22;3792;47.740;7.606;2024-01-25T08:13:38;10.00;99.90
7502;DHT22;3792;47.740;7.606;2024-01-25T08:16:09;10.00;99.90
7502;DHT22;3792;47.740;7.606;2024-01-25T08:18:37;10.00;99.90
7502;DHT22;3792;47.740;7.606;2024-01-25T08:21:11;10.10;99.90
7502;DHT22;3792;47.740;7.606;2024-01-25T08:23:39;10.10;99.90
7502;DHT22;3792;47.740;7.606;2024-01-25T08:26:06;10.10;99.90
7502;DHT22;3792;47.740;7.606;2024-01-25T08:28:35;10.10;99.90
7502;DHT22;3792;47.740;7.606;2024-01-25T08:31:04;10.10;99.90
7502;DHT22;3792;47.740;7.606;2024-01-25T08:33:31;10.10;99.90
7502;DHT22;3792;47.740;7.606;2024-01-25T08:35:58;10.20;99.90
7502;DHT22;3792;47.740;7.606;2024-01-25T08:38:25;10.20;99.90
7502;DHT22;3792;47.740;7.606;2024-01-25T08:40:53;10.20;99.90
7502;DHT22;3792;47.740;7.606;2024-01-25T08:43:25;10.20;99.90
7502;DHT22;3792;47.740;7.606;2024-01-25T08:45:58;10.30;99.90
7502;DHT22;3792;47.740;7.606;2024-01-25T08:48:27;10.30;99.90
7502;DHT22;3792;47.740;7.606;2024-01-25T08:50:57;10.40;99.90
7502;DHT22;3792;47.740;7.606;2024-01-25T08:53:24;10.40;99.90
7502;DHT22;3792;47.740;7.606;2024-01-25T08:55:54;10.50;99.90
7502;DHT22;3792;47.740;7.606;2024-01-25T08:58:26;10.40;99.90
7502;DHT22;3792;47.740;7.606;2024-01-25T09:00:53;10.50;99.90
7502;DHT22;3792;47.740;7.606;2024-01-25T09:03:20;10.50;99.90
7502;DHT22;3792;47.740;7.606;2024-01-25T09:05:49;10.50;99.90
7502;DHT22;3792;47.740;7.606;2024-01-25T09:08:16;10.50;99.90
7502;DHT22;3792;47.740;7.606;2024-01-25T09:10:44;10.40;99.90
7502;DHT22;3792;47.740;7.606;2024-01-25T09:13:12;10.50;99.90
7502;DHT22;3792;47.740;7.606;2024-01-25T09:15:41;10.50;99.90
7502;DHT22;3792;47.740;7.606;2024-01-25T09:18:08;10.50;99.90
7502;DHT22;3792;47.740;7.606;2024-01-25T09:20:38;10.60;99.90
7502;DHT22;3792;47.740;7.606;2024-01-25T09:23:08;10.60;99.90
7502;DHT22;3792;47.740;7.606;2024-01-25T09:25:38;10.60;99.90
7502;DHT22;3792;47.740;7.606;2024-01-25T09:28:05;10.70;99.90
7502;DHT22;3792;47.740;7.606;2024-01-25T09:30:34;10.70;99.90
7502;DHT22;3792;47.740;7.606;2024-01-25T09:33:01;10.70;99.90
7502;DHT22;3792;47.740;7.606;2024-01-25T09:35:28;10.70;99.90
7502;DHT22;3792;47.740;7.606;2024-01-25T09:37:55;10.60;99.90
7502;DHT22;3792;47.740;7.606;2024-01-25T09:40:22;10.70;99.90
7502;DHT22;3792;47.740;7.606;2024-01-25T09:42:49;10.70;99.90
7502;DHT22;3792;47.740;7.606;2024-01-25T09:45:19;10.70;99.90
7502;DHT22;3792;47.740;7.606;2024-01-25T09:47:48;10.70;99.90
7502;DHT22;3792;47.740;7.606;2024-01-25T09:50:15;10.70;99.90
7502;DHT22;3792;47.740;7.606;2024-01-25T09:52:43;10.70;99.90
7502;DHT22;3792;47.740;7.606;2024-01-25T09:55:13;10.70;99.90
7502;DHT22;3792;47.740;7.606;2024-01-25T09:57:46;10.70;99.90
7502;DHT22;3792;47.740;7.606;2024-01-25T10:00:16;10.70;99.90
7502;DHT22;3792;47.740;7.606;2024-01-25T10:02:43;10.60;99.90
7502;DHT22;3792;47.740;7.606;2024-01-25T10:05:12;10.60;99.90
7502;DHT22;3792;47.740;7.606;2024-01-25T10:07:40;10.70;99.90
7502;DHT22;3792;47.740;7.606;2024-01-25T10:10:08;10.80;99.90
7502;DHT22;3792;47.740;7.606;2024-01-25T10:12:37;10.80;99.90
7502;DHT22;3792;47.740;7.606;2024-01-25T10:15:11;10.80;99.90
7502;DHT22;3792;47.740;7.606;2024-01-25T10:17:38;10.80;99.90
7502;DHT22;3792;47.740;7.606;2024-01-25T10:20:06;10.90;99.90
7502;DHT22;3792;47.740;7.606;2024-01-25T10:22:38;10.90;99.90
7502;DHT22;3792;47.740;7.606;2024-01-25T10:25:12;10.90;99.90
7502;DHT22;3792;47.740;7.606;2024-01-25T10:27:39;10.90;99.90
7502;DHT22;3792;47.740;7.606;2024-01-25T10:30:10;10.90;99.90
7502;DHT22;3792;47.740;7.606;2024-01-25T10:32:41;10.80;99.90
7502;DHT22;3792;47.740;7.606;2024-01-25T10:35:09;10.80;99.90
7502;DHT22;3792;47.740;7.606;2024-01-25T10:37:39;10.80;99.90
7502;DHT22;3792;47.740;7.606;2024-01-25T10:40:10;10.80;99.90
7502;DHT22;3792;47.740;7.606;2024-01-25T10:42:37;10.80;99.90
7502;DHT22;3792;47.740;7.606;2024-01-25T10:45:05;10.80;99.90
7502;DHT22;3792;47.740;7.606;2024-01-25T10:47:35;10.80;99.90
7502;DHT22;3792;47.740;7.606;2024-01-25T10:50:04;10.80;99.90
7502;DHT22;3792;47.740;7.606;2024-01-25T10:52:36;10.70;99.90
7502;DHT22;3792;47.740;7.606;2024-01-25T10:55:11;10.70;99.90
7502;DHT22;3792;47.740;7.606;2024-01-25T10:57:42;10.70;99.90
7502;DHT22;3792;47.740;7.606;2024-01-25T11:00:10;10.70;99.90
7502;DHT22;3792;47.740;7.606;2024-01-25T11:02:39;10.80;99.90
7502;DHT22;3792;47.740;7.606;2024-01-25T11:05:09;10.80;99.90
7502;DHT22;3792;47.740;7.606;2024-01-25T11:07:45;10.80;99.90
7502;DHT22;3792;47.740;7.606;2024-01-25T11:10:17;10.80;99.90
7502;DHT22;3792;47.740;7.606;2024-01-25T11:12:51;10.80;99.90
7502;DHT22;3792;47.740;7.606;2024-01-25T11:15:21;10.80;99.90
7502;DHT22;3792;47.740;7.606;2024-01-25T11:17:53;10.80;99.90
7502;DHT22;3792;47.740;7.606;2024-01-25T11:20:30;10.90;99.90
7502;DHT22;3792;47.740;7.606;2024-01-25T11:22:58;10.90;99.90
7502;DHT22;3792;47.740;7.606;2024-01-25T11:25:28;10.90;99.90
7502;DHT22;3792;47.740;7.606;2024-01-25T11:27:56;11.00;99.90
7502;DHT22;3792;47.740;7.606;2024-01-25T11:30:23;11.00;99.90
7502;DHT22;3792;47.740;7.606;2024-01-25T11:32:50;11.00;99.90
7502;DHT22;3792;47.740;7.606;2024-01-25T11:35:17;11.00;99.90
7502;DHT22;3792;47.740;7.606;2024-01-25T11:37:49;11.10;99.90
7502;DHT22;3792;47.740;7.606;2024-01-25T11:40:20;11.10;99.90
7502;DHT22;3792;47.740;7.606;2024-01-25T11:42:48;11.20;99.90
7502;DHT22;3792;47.740;7.606;2024-01-25T11:45:18;11.20;99.90
7502;DHT22;3792;47.740;7.606;2024-01-25T11:47:45;11.20;99.90
7502;DHT22;3792;47.740;7.606;2024-01-25T11:50:12;11.20;99.90
7502;DHT22;3792;47.740;7.606;2024-01-25T11:52:39;11.20;99.90
7502;DHT22;3792;47.740;7.606;2024-01-25T11:55:09;11.20;99.90
7502;DHT22;3792;47.740;7.606;2024-01-25T11:57:38;11.20;99.90
7502;DHT22;3792;47.740;7.606;2024-01-25T12:00:09;11.20;99.90
7502;DHT22;3792;47.740;7.606;2024-01-25T12:02:38;11.30;99.90
7502;DHT22;3792;47.740;7.606;2024-01-25T12:05:06;11.30;99.90
7502;DHT22;3792;47.740;7.606;2024-01-25T12:07:35;11.20;99.90
7502;DHT22;3792;47.740;7.606;2024-01-25T12:10:03;11.30;99.90
7502;DHT22;3792;47.740;7.606;2024-01-25T12:12:32;11.30;99.90
7502;DHT22;3792;47.740;7.606;2024-01-25T12:15:03;11.30;99.90
7502;DHT22;3792;47.740;7.606;2024-01-25T12:17:32;11.40;99.90
7502;DHT22;3792;47.740;7.606;2024-01-25T12:20:00;11.40;99.90
7502;DHT22;3792;47.740;7.606;2024-01-25T12:22:28;11.50;99.90
7502;DHT22;3792;47.740;7.606;2024-01-25T12:24:58;11.50;99.90
7502;DHT22;3792;47.740;7.606;2024-01-25T12:27:28;11.60;99.90
7502;DHT22;3792;47.740;7.606;2024-01-25T12:29:57;11.70;99.90
7502;DHT22;3792;47.740;7.606;2024-01-25T12:32:24;11.80;99.90
7502;DHT22;3792;47.740;7.606;2024-01-25T12:34:55;11.80;99.90
7502;DHT22;3792;47.740;7.606;2024-01-25T12:37:22;11.90;99.90
7502;DHT22;3792;47.740;7.606;2024-01-25T12:39:51;12.00;99.90
7502;DHT22;3792;47.740;7.606;2024-01-25T12:42:19;12.10;99.90
7502;DHT22;3792;47.740;7.606;2024-01-25T12:44:46;12.20;99.90
7502;DHT22;3792;47.740;7.606;2024-01-25T12:47:15;12.30;99.90
7502;DHT22;3792;47.740;7.606;2024-01-25T12:49:43;12.20;99.90
7502;DHT22;3792;47.740;7.606;2024-01-25T12:52:11;12.20;99.90
7502;DHT22;3792;47.740;7.606;2024-01-25T12:54:38;12.20;99.90
7502;DHT22;3792;47.740;7.606;2024-01-25T12:57:06;12.20;99.90
7502;DHT22;3792;47.740;7.606;2024-01-25T12:59:34;12.30;99.90
7502;DHT22;3792;47.740;7.606;2024-01-25T13:02:03;12.30;99.90
7502;DHT22;3792;47.740;7.606;2024-01-25T13:04:32;12.30;99.90
7502;DHT22;3792;47.740;7.606;2024-01-25T13:06:59;12.30;99.90
7502;DHT22;3792;47.740;7.606;2024-01-25T13:09:26;12.40;99.90
7502;DHT22;3792;47.740;7.606;2024-01-25T13:12:01;12.40;99.90
7502;DHT22;3792;47.740;7.606;2024-01-25T13:14:31;12.40;99.90
7502;DHT22;3792;47.740;7.606;2024-01-25T13:16:59;12.50;99.90
7502;DHT22;3792;47.740;7.606;2024-01-25T13:19:26;12.60;99.90
7502;DHT22;3792;47.740;7.606;2024-01-25T13:21:54;12.60;99.90
7502;DHT22;3792;47.740;7.606;2024-01-25T13:24:21;12.60;99.90
7502;DHT22;3792;47.740;7.606;2024-01-25T13:26:48;12.50;99.90
7502;DHT22;3792;47.740;7.606;2024-01-25T13:29:15;12.50;99.90
7502;DHT22;3792;47.740;7.606;2024-01-25T13:31:43;12.50;99.90
7502;DHT22;3792;47.740;7.606;2024-01-25T13:34:10;12.40;99.90
7502;DHT22;3792;47.740;7.606;2024-01-25T13:36:37;12.50;99.90
7502;DHT22;3792;47.740;7.606;2024-01-25T13:39:05;12.50;99.90
7502;DHT22;3792;47.740;7.606;2024-01-25T13:41:33;12.50;99.90
7502;DHT22;3792;47.740;7.606;2024-01-25T13:44:00;12.50;99.90
7502;DHT22;3792;47.740;7.606;2024-01-25T13:46:27;12.50;99.90
7502;DHT22;3792;47.740;7.606;2024-01-25T13:48:54;12.50;99.90
7502;DHT22;3792;47.740;7.606;2024-01-25T13:51:22;12.40;99.90
7502;DHT22;3792;47.740;7.606;2024-01-25T13:53:49;12.40;99.90
7502;DHT22;3792;47.740;7.606;2024-01-25T13:56:17;12.40;99.90
7502;DHT22;3792;47.740;7.606;2024-01-25T13:58:44;12.30;99.90
7502;DHT22;3792;47.740;7.606;2024-01-25T14:01:11;12.30;99.90
7502;DHT22;3792;47.740;7.606;2024-01-25T14:03:38;12.20;99.90
7502;DHT22;3792;47.740;7.606;2024-01-25T14:06:06;12.20;99.90
7502;DHT22;3792;47.740;7.606;2024-01-25T14:08:35;12.20;99.90
7502;DHT22;3792;47.740;7.606;2024-01-25T14:11:03;12.20;99.90
7502;DHT22;3792;47.740;7.606;2024-01-25T14:13:32;12.20;99.90
7502;DHT22;3792;47.740;7.606;2024-01-25T14:15:59;12.20;99.90
7502;DHT22;3792;47.740;7.606;2024-01-25T14:18:35;12.20;99.90
7502;DHT22;3792;47.740;7.606;2024-01-25T14:21:04;12.30;99.90
7502;DHT22;3792;47.740;7.606;2024-01-25T14:23:32;12.30;99.90
7502;DHT22;3792;47.740;7.606;2024-01-25T14:25:59;12.30;99.90
7502;DHT22;3792;47.740;7.606;2024-01-25T14:28:26;12.30;99.90
7502;DHT22;3792;47.740;7.606;2024-01-25T14:30:56;12.40;99.90
7502;DHT22;3792;47.740;7.606;2024-01-25T14:33:23;12.40;99.90
7502;DHT22;3792;47.740;7.606;2024-01-25T14:35:53;12.30;99.90
7502;DHT22;3792;47.740;7.606;2024-01-25T14:38:20;12.30;99.90
7502;DHT22;3792;47.740;7.606;2024-01-25T14:40:47;12.30;99.90
7502;DHT22;3792;47.740;7.606;2024-01-25T14:43:14;12.30;99.90
7502;DHT22;3792;47.740;7.606;2024-01-25T14:45:41;12.30;99.90
7502;DHT22;3792;47.740;7.606;2024-01-25T14:48:09;12.30;99.90
7502;DHT22;3792;47.740;7.606;2024-01-25T14:50:40;12.30;99.90
7502;DHT22;3792;47.740;7.606;2024-01-25T14:53:07;12.20;99.90
7502;DHT22;3792;47.740;7.606;2024-01-25T14:55:34;12.20;99.90
7502;DHT22;3792;47.740;7.606;2024-01-25T14:58:01;12.20;99.90
7502;DHT22;3792;47.740;7.606;2024-01-25T15:00:30;12.20;99.90
7502;DHT22;3792;47.740;7.606;2024-01-25T15:02:57;12.20;99.90
7502;DHT22;3792;47.740;7.606;2024-01-25T15:05:26;12.20;99.90
7502;DHT22;3792;47.740;7.606;2024-01-25T15:07:53;12.20;99.90
7502;DHT22;3792;47.740;7.606;2024-01-25T15:10:20;12.20;99.90
7502;DHT22;3792;47.740;7.606;2024-01-25T15:12:47;12.20;99.90
7502;DHT22;3792;47.740;7.606;2024-01-25T15:15:14;12.20;99.90
7502;DHT22;3792;47.740;7.606;2024-01-25T15:17:43;12.20;99.90
7502;DHT22;3792;47.740;7.606;2024-01-25T15:20:11;12.20;99.90
7502;DHT22;3792;47.740;7.606;2024-01-25T15:22:39;12.20;99.90
7502;DHT22;3792;47.740;7.606;2024-01-25T15:25:07;12.20;99.90
7502;DHT22;3792;47.740;7.606;2024-01-25T15:27:35;12.20;99.90
7502;DHT22;3792;47.740;7.606;2024-01-25T15:30:03;12.10;99.90
7502;DHT22;3792;47.740;7.606;2024-01-25T15:32:34;12.10;99.90
7502;DHT22;3792;47.740;7.606;2024-01-25T15:35:02;12.20;99.90
7502;DHT22;3792;47.740;7.606;2024-01-25T15:37:29;12.10;99.90
7502;DHT22;3792;47.740;7.606;2024-01-25T15:40:00;12.10;99.90
7502;DHT22;3792;47.740;7.606;2024-01-25T15:42:34;12.10;99.90
7502;DHT22;3792;47.740;7.606;2024-01-25T15:45:02;12.10;99.90
7502;DHT22;3792;47.740;7.606;2024-01-25T15:47:31;12.00;99.90
7502;DHT22;3792;47.740;7.606;2024-01-25T15:50:00;12.00;99.90
7502;DHT22;3792;47.740;7.606;2024-01-25T15:52:30;12.00;99.90
7502;DHT22;3792;47.740;7.606;2024-01-25T15:55:02;12.00;99.90
7502;DHT22;3792;47.740;7.606;2024-01-25T15:57:29;11.90;99.90
7502;DHT22;3792;47.740;7.606;2024-01-25T15:59:57;11.90;99.90
7502;DHT22;3792;47.740;7.606;2024-01-25T16:02:26;11.80;99.90
7502;DHT22;3792;47.740;7.606;2024-01-25T16:04:53;11.80;99.90
7502;DHT22;3792;47.740;7.606;2024-01-25T16:07:20;11.80;99.90
7502;DHT22;3792;47.740;7.606;2024-01-25T16:09:49;11.70;99.90
7502;DHT22;3792;47.740;7.606;2024-01-25T16:12:17;11.60;99.90